Time;durP1;ratioP1;P1;durP2;ratioP2;P2;SDS_P1;SDS_P2;PMS_P1;PMS_P2;Temp;Humidity;BMP_temperature;BMP_pressure;BME280_temperature;BME280_humidity;BME280_pressure;Samples;Min_cycle;Max_cycle;Signal;HPM_P1;HPM_P2
2023/10/07 00:01:37;;;;;;;7.20;3.30;;;;;;;13.52;79.61;99668.27;218273;1259;140954;-74
2023/10/07 00:06:42;;;;;;;5.90;3.10;;;;;;;13.53;79.13;99657.02;217375;1260;140173;-76
2023/10/07 00:11:49;;;;;;;5.60;3.80;;;;;;;13.54;79.12;99646.70;218360;1256;140555;-80
2023/10/07 00:16:54;;;;;;;7.10;3.20;;;;;;;13.57;78.85;99635.47;217807;1259;140944;-80
2023/10/07 00:22:08;;;;;;;9.40;4.00;;;;;;;13.59;78.58;99626.44;218064;1259;140463;-79
2023/10/07 00:27:29;;;;;;;6.00;3.60;;;;;;;13.62;78.13;99624.33;218045;1259;140959;-81
2023/10/07 00:32:33;;;;;;;10.90;4.00;;;;;;;13.68;77.81;99615.90;217892;1257;140693;-74
2023/10/07 00:37:43;;;;;;;8.60;3.10;;;;;;;13.70;77.55;99599.75;218706;1258;142142;-74
2023/10/07 00:42:50;;;;;;;5.90;4.10;;;;;;;13.75;77.24;99596.52;217416;1259;140012;-77
2023/10/07 00:48:02;;;;;;;5.70;2.90;;;;;;;13.79;77.03;99586.86;219401;1258;140357;-78
2023/10/07 00:53:09;;;;;;;4.80;3.70;;;;;;;13.85;76.71;99591.77;219112;1258;140164;-78
2023/10/07 00:58:26;;;;;;;8.40;2.90;;;;;;;13.91;76.36;99594.02;219281;1257;140096;-79
2023/10/07 01:03:47;;;;;;;;;;;;;;;13.99;75.86;99585.71;217820;1259;139800;-77
2023/10/07 01:09:07;;;;;;;5.50;3.10;;;;;;;14.04;75.86;99575.83;219055;1259;126546;-78
2023/10/07 01:14:13;;;;;;;9.90;4.60;;;;;;;14.08;75.53;99569.81;218129;1258;140760;-78
2023/10/07 01:24:45;;;;;;;5.10;3.90;;;;;;;14.17;74.99;99559.83;217651;1259;140385;-74
2023/10/07 01:29:50;;;;;;;3.00;2.60;;;;;;;14.20;74.74;99548.95;217341;1257;141191;-75
2023/10/07 01:34:55;;;;;;;6.10;3.40;;;;;;;14.23;74.66;99543.89;217535;1257;139710;-77
2023/10/07 01:40:00;;;;;;;8.20;3.10;;;;;;;14.27;74.19;99533.13;217278;1261;139668;-75
2023/10/07 01:45:20;;;;;;;5.00;3.50;;;;;;;14.29;74.14;99527.02;218002;1259;140960;-71
2023/10/07 01:50:25;;;;;;;3.90;2.90;;;;;;;14.30;73.91;99517.10;218784;1257;140505;-76
2023/10/07 01:55:35;;;;;;;7.20;2.50;;;;;;;14.32;73.67;99517.59;217940;1261;139816;-75
2023/10/07 02:00:45;;;;;;;5.00;3.40;;;;;;;14.33;73.33;99515.55;217734;1257;140303;-75
2023/10/07 02:05:51;;;;;;;5.50;3.00;;;;;;;14.35;73.17;99509.19;218185;1262;139559;-78
2023/10/07 02:10:59;;;;;;;5.00;2.30;;;;;;;14.36;72.98;99514.38;217733;1262;139709;-74
2023/10/07 02:16:06;;;;;;;6.10;2.90;;;;;;;14.35;72.79;99509.77;218658;1257;139985;-75
2023/10/07 02:21:11;;;;;;;6.20;2.60;;;;;;;14.32;72.80;99488.36;217786;1259;140694;-73
2023/10/07 02:26:20;;;;;;;5.50;2.90;;;;;;;14.30;72.69;99487.33;219139;1257;140305;-79
2023/10/07 02:31:27;;;;;;;3.20;2.90;;;;;;;14.30;72.47;99475.86;217859;1259;141546;-78
2023/10/07 02:36:39;;;;;;;5.80;2.00;;;;;;;14.30;72.42;99475.27;218787;1258;140673;-77
2023/10/07 02:41:46;;;;;;;4.50;2.90;;;;;;;14.32;72.45;99470.94;219064;1261;141143;-78
2023/10/07 02:46:54;;;;;;;9.80;2.50;;;;;;;14.34;72.41;99457.85;219254;1258;139933;-77
2023/10/07 02:51:59;;;;;;;3.70;2.50;;;;;;;14.36;72.36;99446.77;218580;1257;140464;-75
2023/10/07 02:57:08;;;;;;;4.60;3.10;;;;;;;14.38;72.47;99448.72;218475;1261;139873;-74
2023/10/07 03:07:23;;;;;;;5.60;1.80;;;;;;;14.45;72.43;99453.05;218991;1257;140007;-76
2023/10/07 03:12:29;;;;;;;5.90;1.90;;;;;;;14.47;72.27;99458.20;218155;1259;140250;-75
2023/10/07 03:17:39;;;;;;;4.30;2.60;;;;;;;14.47;72.21;99447.10;217701;1262;139586;-75
2023/10/07 03:23:10;;;;;;;4.20;2.50;;;;;;;14.50;72.38;99445.71;217925;1257;139595;-79
2023/10/07 03:28:16;;;;;;;5.80;2.40;;;;;;;14.54;72.22;99440.19;218383;1259;140528;-80
2023/10/07 03:33:43;;;;;;;7.00;2.90;;;;;;;14.56;72.40;99439.29;217644;1259;140438;-77
2023/10/07 03:39:00;;;;;;;6.30;2.50;;;;;;;14.47;72.80;99437.50;218082;1258;139909;-73
2023/10/07 03:44:04;;;;;;;5.80;3.00;;;;;;;14.38;73.22;99439.92;218068;1259;140794;-79
2023/10/07 03:49:10;;;;;;;6.40;2.00;;;;;;;14.34;73.36;99440.42;217884;1259;208903;-81
2023/10/07 03:54:35;;;;;;;4.70;2.20;;;;;;;14.33;73.46;99439.63;217157;1262;139790;-79
2023/10/07 03:59:41;;;;;;;4.30;3.40;;;;;;;14.30;73.70;99436.34;217775;1259;141686;-80
2023/10/07 04:04:46;;;;;;;2.20;2.00;;;;;;;14.27;73.80;99428.45;217806;1259;140942;-78
2023/10/07 04:09:51;;;;;;;4.60;2.70;;;;;;;14.28;73.87;99423.85;218032;1258;139908;-79
2023/10/07 04:14:56;;;;;;;3.60;2.50;;;;;;;14.26;74.03;99426.67;218793;1261;140622;-80
2023/10/07 04:20:17;;;;;;;6.10;3.00;;;;;;;14.25;74.45;99423.77;217644;1260;140531;-81
2023/10/07 04:25:27;;;;;;;1.90;1.70;;;;;;;14.24;74.69;99426.67;218522;1259;140824;-80
2023/10/07 04:30:46;;;;;;;3.60;2.10;;;;;;;14.20;74.90;99420.33;217624;1262;140662;-80
2023/10/07 04:35:58;;;;;;;6.50;2.60;;;;;;;14.17;75.04;99404.20;219193;1259;139299;-80
2023/10/07 04:46:29;;;;;;;2.30;1.80;;;;;;;14.14;75.41;99405.63;218844;1262;139451;-72
2023/10/07 04:51:46;;;;;;;5.50;2.80;;;;;;;14.17;75.59;99399.90;218702;1257;139823;-71
2023/10/07 04:57:00;;;;;;;6.40;2.10;;;;;;;14.22;75.66;99399.48;219555;1259;140989;-74
2023/10/07 05:02:10;;;;;;;4.50;2.50;;;;;;;14.27;75.86;99402.66;218493;1257;140113;-73
2023/10/07 05:07:24;;;;;;;7.60;2.70;;;;;;;14.29;75.93;99405.61;217329;1262;140912;-73
2023/10/07 05:12:29;;;;;;;5.50;1.90;;;;;;;14.33;75.98;99408.35;217287;1262;140882;-73
2023/10/07 05:17:36;;;;;;;8.00;3.00;;;;;;;14.30;76.22;99413.11;217523;1259;141275;-69
2023/10/07 05:22:41;;;;;;;3.70;2.50;;;;;;;14.26;76.61;99408.61;217183;1260;140747;-70
2023/10/07 05:27:45;;;;;;;4.70;3.30;;;;;;;14.24;76.93;99411.34;217392;1259;140278;-71
2023/10/07 05:32:53;;;;;;;5.00;2.50;;;;;;;14.24;77.01;99417.35;217196;1262;139997;-70
2023/10/07 05:38:03;;;;;;;4.40;3.30;;;;;;;14.29;77.23;99415.10;217287;1262;141495;-70
2023/10/07 05:43:08;;;;;;;3.30;3.00;;;;;;;14.34;77.48;99419.23;217029;1263;139622;-70
2023/10/07 05:48:14;;;;;;;17.60;4.50;;;;;;;14.40;77.67;99415.31;217027;1257;140689;-71
2023/10/07 05:53:20;;;;;;;9.60;2.80;;;;;;;14.40;77.90;99427.23;218540;1261;141204;-76
2023/10/07 05:58:27;;;;;;;4.30;2.50;;;;;;;14.40;77.93;99439.56;218148;1259;140787;-79
2023/10/07 06:03:32;;;;;;;;;;;;;;;14.41;78.23;99446.12;218981;1262;139807;-79
2023/10/07 06:08:37;;;;;;;2.40;2.10;;;;;;;14.41;78.26;99446.88;217699;1263;126301;-76
2023/10/07 06:13:44;;;;;;;3.40;3.10;;;;;;;14.43;78.61;99451.87;218792;1262;139613;-76
2023/10/07 06:18:49;;;;;;;6.20;2.50;;;;;;;14.52;78.70;99448.72;218670;1260;140805;-76
2023/10/07 06:23:58;;;;;;;31.50;3.60;;;;;;;14.57;78.82;99448.25;217257;1262;140237;-76
2023/10/07 06:29:18;;;;;;;3.40;2.60;;;;;;;14.66;78.95;99436.70;220062;1258;140581;-79
2023/10/07 06:34:26;;;;;;;3.50;2.40;;;;;;;14.73;78.94;99443.08;219235;1260;139920;-79
2023/10/07 06:39:32;;;;;;;6.80;2.50;;;;;;;14.82;78.96;99449.15;217637;1259;140559;-82
2023/10/07 06:44:38;;;;;;;3.00;2.40;;;;;;;14.90;78.93;99452.42;217278;1261;140894;-84
2023/10/07 06:49:45;;;;;;;5.00;3.00;;;;;;;14.94;78.95;99449.37;219396;1262;139924;-81
2023/10/07 06:54:54;;;;;;;4.70;2.30;;;;;;;15.02;78.86;99445.59;219007;1262;141562;-81
2023/10/07 07:00:37;;;;;;;4.20;3.10;;;;;;;15.12;78.78;99449.98;217277;1262;141172;-83
2023/10/07 07:05:41;;;;;;;3.10;2.80;;;;;;;15.22;78.66;99443.36;216826;1258;139983;-76
2023/10/07 07:10:50;;;;;;;3.10;2.80;;;;;;;15.29;78.62;99436.02;217188;1260;140717;-75
2023/10/07 07:16:06;;;;;;;4.20;2.80;;;;;;;15.50;78.49;99437.05;217036;1263;139913;-80
2023/10/07 07:26:21;;;;;;;10.20;2.50;;;;;;;15.63;77.87;99438.03;217408;1262;139646;-76
2023/10/07 07:31:32;;;;;;;2.30;2.10;;;;;;;15.62;77.74;99439.38;218549;1260;140744;-71
2023/10/07 07:36:38;;;;;;;6.00;3.20;;;;;;;15.60;77.66;99444.44;217296;1262;140013;-73
2023/10/07 07:42:22;;;;;;;5.20;2.00;;;;;;;15.64;77.62;99431.96;217885;1258;141186;-72
2023/10/07 07:47:15;;;;;;;6.00;3.20;;;;;;;15.74;77.60;99436.59;217688;1258;140029;-68
2023/10/07 07:52:20;;;;;;;2.10;1.80;;;;;;;15.88;77.48;99437.14;218479;1261;139695;-72
2023/10/07 07:57:27;;;;;;;3.50;3.20;;;;;;;15.99;77.15;99437.75;217962;1260;143041;-71
2023/10/07 08:02:35;;;;;;;6.70;2.50;;;;;;;16.10;77.03;99441.96;218036;1261;140196;-70
2023/10/07 08:07:43;;;;;;;2.70;2.00;;;;;;;16.14;76.82;99445.65;217945;1259;140304;-69
2023/10/07 08:12:50;;;;;;;6.20;3.00;;;;;;;16.15;76.60;99451.56;217648;1260;139615;-73
2023/10/07 08:17:56;;;;;;;3.60;2.50;;;;;;;16.07;76.51;99462.94;218359;1260;140719;-70
2023/10/07 08:23:08;;;;;;;3.20;2.10;;;;;;;16.06;76.59;99451.87;217751;1257;141071;-69
2023/10/07 08:28:23;;;;;;;2.90;2.30;;;;;;;16.07;76.55;99451.16;218229;1262;140642;-71
2023/10/07 08:33:33;;;;;;;3.60;3.30;;;;;;;16.03;76.41;99456.88;217732;1258;142095;-70
2023/10/07 08:38:50;;;;;;;3.60;3.20;;;;;;;16.03;76.49;99466.62;218569;1258;140440;-74
2023/10/07 08:44:14;;;;;;;4.10;2.40;;;;;;;16.07;76.33;99467.46;219236;1258;141091;-75
2023/10/07 08:49:27;;;;;;;4.00;3.00;;;;;;;16.08;76.23;99457.94;219482;1260;139483;-75
2023/10/07 08:54:37;;;;;;;2.80;2.20;;;;;;;16.06;76.18;99460.91;218064;1257;139927;-68
2023/10/07 08:59:52;;;;;;;6.20;2.90;;;;;;;16.04;76.21;99460.96;218686;1257;139863;-69
2023/10/07 09:04:58;;;;;;;3.60;2.30;;;;;;;16.03;76.18;99466.94;218060;1258;139810;-70
2023/10/07 09:10:10;;;;;;;6.30;2.30;;;;;;;16.04;76.20;99466.89;218474;1260;140330;-71
2023/10/07 09:15:26;;;;;;;4.10;3.10;;;;;;;16.08;76.19;99456.54;217759;1257;139825;-71
2023/10/07 09:20:36;;;;;;;6.00;4.00;;;;;;;16.15;76.17;99460.42;217907;1257;139855;-81
2023/10/07 09:25:46;;;;;;;5.10;3.10;;;;;;;16.17;76.08;99460.59;217623;1258;806306;-74
2023/10/07 09:30:51;;;;;;;7.40;3.50;;;;;;;16.17;76.02;99455.69;217390;1259;139539;-74
2023/10/07 09:46:29;;;;;;;6.30;4.40;;;;;;;16.18;76.14;99466.87;217555;1258;140243;-75
2023/10/07 09:51:47;;;;;;;4.30;3.00;;;;;;;16.19;76.20;99469.02;218947;1258;140573;-78
2023/10/07 09:57:20;;;;;;;4.90;3.70;;;;;;;16.17;76.40;99466.34;218446;1257;139877;-76
2023/10/07 10:03:03;;;;;;;13.90;4.00;;;;;;;16.21;76.44;99456.29;218110;1257;140325;-75
2023/10/07 10:08:44;;;;;;;7.60;3.70;;;;;;;16.25;76.38;99460.02;217743;1257;140025;-74
2023/10/07 10:13:52;;;;;;;4.90;3.00;;;;;;;16.30;76.34;99462.58;218033;1260;140928;-75
2023/10/07 10:24:24;;;;;;;4.50;3.50;;;;;;;16.34;76.40;99474.13;218452;1260;140409;-82
2023/10/07 10:29:31;;;;;;;3.50;3.20;;;;;;;16.37;76.31;99475.61;219540;1258;140387;-77
2023/10/07 10:34:36;;;;;;;10.70;3.90;;;;;;;16.39;76.36;99468.13;218585;1261;139902;-78
2023/10/07 10:39:42;;;;;;;12.50;4.20;;;;;;;16.40;76.43;99465.06;218238;1259;140167;-77
2023/10/07 10:44:48;;;;;;;5.60;3.00;;;;;;;16.40;76.52;99468.34;218853;1260;140451;-77
2023/10/07 10:49:57;;;;;;;6.50;3.70;;;;;;;16.40;76.62;99473.34;218965;1259;140388;-77
2023/10/07 10:55:03;;;;;;;4.50;3.80;;;;;;;16.36;76.75;99466.80;217848;1259;140575;-75
2023/10/07 11:00:19;;;;;;;7.60;3.80;;;;;;;16.33;76.68;99479.30;217953;1260;139734;-73
2023/10/07 11:05:26;;;;;;;5.50;3.10;;;;;;;16.29;76.86;99475.66;217711;1257;140958;-77
2023/10/07 11:10:32;;;;;;;3.80;3.50;;;;;;;16.27;77.09;99471.54;217587;1263;139836;-76
2023/10/07 11:15:41;;;;;;;3.20;2.70;;;;;;;16.22;77.13;99481.63;218369;1257;140763;-77
2023/10/07 11:20:50;;;;;;;2.40;2.20;;;;;;;16.14;77.45;99487.92;217948;1259;139588;-78
2023/10/07 11:25:57;;;;;;;5.00;3.80;;;;;;;16.09;77.64;99493.96;219406;1257;139864;-77
2023/10/07 11:31:03;;;;;;;7.70;3.80;;;;;;;16.08;77.94;99489.83;217568;1257;140186;-73
2023/10/07 11:36:07;;;;;;;3.70;2.80;;;;;;;16.05;78.13;99479.52;217380;1260;139933;-73
2023/10/07 11:41:13;;;;;;;4.10;3.80;;;;;;;16.04;78.38;99482.80;218383;1257;140393;-74
2023/10/07 11:46:19;;;;;;;5.70;3.20;;;;;;;16.05;78.63;99478.23;217821;1257;140889;-71
2023/10/07 11:51:27;;;;;;;4.10;3.30;;;;;;;16.05;78.82;99479.20;217928;1257;139248;-78
2023/10/07 11:56:32;;;;;;;5.20;3.40;;;;;;;16.05;78.83;99480.11;217560;1257;140103;-77
2023/10/07 12:01:38;;;;;;;4.10;2.80;;;;;;;16.05;78.99;99478.17;217935;1259;139030;-81
2023/10/07 12:06:45;;;;;;;4.30;3.50;;;;;;;16.05;79.15;99479.14;217874;1258;139707;-80
2023/10/07 12:11:53;;;;;;;7.00;4.60;;;;;;;16.03;79.24;99478.71;217800;1257;140768;-75
2023/10/07 12:16:58;;;;;;;8.30;4.50;;;;;;;16.00;79.55;99482.23;217799;1259;139779;-70
2023/10/07 12:22:05;;;;;;;6.60;4.00;;;;;;;15.96;79.50;99479.87;217098;1257;140326;-69
2023/10/07 12:27:12;;;;;;;4.10;3.70;;;;;;;15.93;79.75;99475.69;219136;1259;140991;-70
2023/10/07 12:32:17;;;;;;;5.70;3.00;;;;;;;15.88;79.99;99475.04;217218;1259;140694;-69
2023/10/07 12:37:22;;;;;;;5.20;3.20;;;;;;;15.84;79.97;99477.79;218293;1259;139705;-69
2023/10/07 12:42:28;;;;;;;7.40;4.80;;;;;;;15.80;80.20;99474.63;217681;1257;141024;-69
2023/10/07 12:47:39;;;;;;;5.80;3.90;;;;;;;15.82;80.29;99479.36;218118;1259;140296;-69
2023/10/07 12:52:45;;;;;;;4.00;3.40;;;;;;;15.78;80.43;99482.86;218872;1259;141107;-69
2023/10/07 12:57:50;;;;;;;4.90;4.10;;;;;;;15.73;80.62;99482.70;219113;1259;141542;-69
2023/10/07 13:02:55;;;;;;;4.70;4.30;;;;;;;15.72;80.84;99482.23;217415;1259;140495;-74
2023/10/07 13:08:00;;;;;;;10.50;4.40;;;;;;;15.68;81.18;99484.23;217427;1259;140394;-69
2023/10/07 13:13:13;;;;;;;5.80;5.20;;;;;;;15.57;81.41;99482.49;220039;1257;140708;-74
2023/10/07 13:18:18;;;;;;;4.30;3.90;;;;;;;15.49;81.89;99494.21;218067;1258;141020;-74
2023/10/07 13:23:25;;;;;;;2.60;2.00;;;;;;;15.39;81.90;99489.77;217562;1259;140627;-70
2023/10/07 13:28:32;;;;;;;2.10;1.90;;;;;;;15.20;81.55;99482.89;217351;1262;140717;-70
2023/10/07 13:33:39;;;;;;;5.40;2.70;;;;;;;14.97;81.74;99478.52;217613;1259;140852;-69
2023/10/07 13:38:44;;;;;;;2.40;2.10;;;;;;;14.80;82.08;99479.73;217582;1259;141131;-74
2023/10/07 13:43:48;;;;;;;4.30;2.70;;;;;;;14.65;82.40;99476.73;217499;1261;140767;-70
2023/10/07 13:48:53;;;;;;;2.20;1.90;;;;;;;14.56;82.84;99475.88;218078;1259;141100;-73
2023/10/07 13:59:24;;;;;;;6.70;4.60;;;;;;;14.43;83.26;99475.89;217535;1257;140685;-73
2023/10/07 14:04:36;;;;;;;7.50;4.40;;;;;;;14.39;83.92;99477.25;218229;1257;141708;-73
2023/10/07 14:09:41;;;;;;;2.90;2.50;;;;;;;14.37;84.08;99470.77;217875;1262;139722;-71
2023/10/07 14:14:52;;;;;;;3.50;2.90;;;;;;;14.36;84.38;99468.80;217770;1257;141609;-69
2023/10/07 14:19:58;;;;;;;7.10;3.90;;;;;;;14.31;84.53;99463.53;218269;1257;139544;-73
2023/10/07 14:25:06;;;;;;;2.30;2.10;;;;;;;14.31;84.73;99461.39;217903;1259;139733;-67
2023/10/07 14:30:17;;;;;;;3.10;2.20;;;;;;;14.29;85.03;99459.98;218400;1257;141372;-71
2023/10/07 14:35:25;;;;;;;3.30;2.10;;;;;;;14.28;85.20;99456.50;219220;1260;141624;-73
2023/10/07 14:40:38;;;;;;;2.20;1.60;;;;;;;14.26;85.25;99459.87;217518;1258;140571;-72
2023/10/07 14:45:52;;;;;;;3.90;1.70;;;;;;;14.24;85.37;99449.20;217893;1257;140612;-74
2023/10/07 14:51:05;;;;;;;3.30;1.80;;;;;;;14.23;85.47;99452.84;219806;1256;139928;-68
2023/10/07 14:56:24;;;;;;;1.50;1.40;;;;;;;14.20;85.49;99455.23;218722;1261;141970;-76
2023/10/07 15:01:33;;;;;;;3.80;1.70;;;;;;;14.18;85.82;99455.17;218197;1257;139629;-71
2023/10/07 15:06:39;;;;;;;1.80;1.00;;;;;;;14.13;85.51;99463.42;217315;1257;139738;-71
2023/10/07 15:11:46;;;;;;;2.50;0.80;;;;;;;13.96;84.87;99469.17;217429;1258;139550;-73
2023/10/07 15:16:54;;;;;;;5.50;1.90;;;;;;;13.81;84.92;99464.83;217955;1257;140126;-77
2023/10/07 15:22:10;;;;;;;;;;;;;;;13.70;84.92;99468.27;217724;1257;140576;-74
2023/10/07 15:27:23;;;;;;;4.50;1.80;;;;;;;13.57;85.28;99475.60;218028;1259;127271;-75
2023/10/07 15:32:29;;;;;;;2.60;1.30;;;;;;;13.47;85.39;99474.73;217632;1259;140799;-76
2023/10/07 15:37:36;;;;;;;3.50;1.30;;;;;;;13.43;85.51;99484.84;217874;1260;139533;-76
2023/10/07 15:42:47;;;;;;;6.70;1.50;;;;;;;13.35;85.33;99481.86;217452;1259;140972;-80
2023/10/07 15:47:58;;;;;;;3.30;1.80;;;;;;;13.24;85.35;99479.59;217503;1259;139882;-72
2023/10/07 15:53:16;;;;;;;6.90;1.40;;;;;;;13.14;85.29;99479.30;217720;1262;220999;-78
2023/10/07 15:58:43;;;;;;;1.90;1.80;;;;;;;13.06;85.18;99481.11;218888;1259;141864;-78
2023/10/07 16:03:50;;;;;;;7.40;1.60;;;;;;;12.95;84.99;99481.06;217693;1261;140166;-77
2023/10/07 16:09:19;;;;;;;2.70;1.70;;;;;;;12.85;85.15;99483.71;218043;1262;141266;-77
2023/10/07 16:14:34;;;;;;;5.60;1.60;;;;;;;12.76;85.25;99484.79;217715;1259;141782;-74
2023/10/07 16:19:39;;;;;;;3.00;2.20;;;;;;;12.69;85.22;99481.29;218042;1259;140724;-78
2023/10/07 16:24:45;;;;;;;3.90;1.90;;;;;;;12.63;85.61;99484.55;218650;1259;141199;-78
2023/10/07 16:29:52;;;;;;;6.10;1.40;;;;;;;12.60;85.39;99491.46;219219;1257;140371;-70
2023/10/07 16:34:58;;;;;;;3.80;1.80;;;;;;;12.55;85.51;99486.08;218223;1258;143833;-77
2023/10/07 16:40:07;;;;;;;4.70;1.90;;;;;;;12.52;85.51;99482.27;219186;1259;140763;-73
2023/10/07 16:45:14;;;;;;;4.00;1.70;;;;;;;12.50;85.77;99470.70;217700;1257;140898;-72
2023/10/07 16:50:23;;;;;;;4.30;1.70;;;;;;;12.48;85.71;99468.23;218532;1258;140988;-78
2023/10/07 16:55:29;;;;;;;1.80;1.70;;;;;;;12.47;85.93;99464.42;218427;1259;139793;-82
2023/10/07 17:00:37;;;;;;;5.90;2.10;;;;;;;12.44;85.91;99458.30;218462;1259;140714;-79
2023/10/07 17:05:42;;;;;;;3.20;2.10;;;;;;;12.42;85.99;99452.61;218898;1259;140769;-72
2023/10/07 17:10:48;;;;;;;3.20;2.10;;;;;;;12.41;86.33;99451.48;218070;1257;140307;-71
2023/10/07 17:15:58;;;;;;;4.00;2.70;;;;;;;12.41;86.12;99446.23;217463;1257;140769;-70
2023/10/07 17:21:11;;;;;;;4.60;2.40;;;;;;;12.39;86.30;99452.30;217801;1259;140210;-72
2023/10/07 17:26:20;;;;;;;2.70;2.20;;;;;;;12.37;86.48;99459.92;218830;1259;140404;-74
2023/10/07 17:31:28;;;;;;;2.90;2.30;;;;;;;12.34;86.47;99467.22;217938;1260;139648;-76
2023/10/07 17:36:36;;;;;;;3.80;1.80;;;;;;;12.30;86.54;99464.66;218071;1259;140736;-74
2023/10/07 17:41:44;;;;;;;3.00;1.20;;;;;;;12.24;86.71;99475.78;217527;1259;140017;-72
2023/10/07 17:46:51;;;;;;;2.50;1.60;;;;;;;12.17;86.55;99477.59;217423;1259;140182;-72
2023/10/07 17:52:04;;;;;;;3.00;0.70;;;;;;;12.07;86.61;99485.05;217891;1258;140935;-73
2023/10/07 17:57:09;;;;;;;4.70;1.40;;;;;;;11.97;86.53;99494.34;218267;1259;140658;-72
2023/10/07 18:02:17;;;;;;;2.70;1.10;;;;;;;11.87;86.35;99490.61;217787;1259;140044;-73
2023/10/07 18:07:27;;;;;;;4.00;1.60;;;;;;;11.74;86.48;99498.27;217628;1259;139524;-72
2023/10/07 18:12:35;;;;;;;4.50;1.50;;;;;;;11.66;86.55;99508.40;218498;1258;140001;-73
2023/10/07 18:17:49;;;;;;;3.50;1.60;;;;;;;11.59;86.67;99524.34;217941;1259;140064;-72
2023/10/07 18:22:56;;;;;;;3.80;2.30;;;;;;;11.50;86.63;99534.63;217382;1260;139660;-73
2023/10/07 18:28:03;;;;;;;2.20;1.90;;;;;;;11.30;86.13;99542.38;218020;1259;139725;-73
2023/10/07 18:33:19;;;;;;;0.90;0.70;;;;;;;11.17;86.49;99535.84;218797;1257;140198;-73
2023/10/07 18:38:34;;;;;;;5.70;1.10;;;;;;;11.05;86.53;99533.19;218592;1259;139527;-71
2023/10/07 18:43:39;;;;;;;1.70;0.80;;;;;;;10.97;86.33;99528.77;217549;1262;139774;-74
2023/10/07 18:48:51;;;;;;;2.40;1.20;;;;;;;10.88;86.34;99530.15;217647;1259;139927;-75
2023/10/07 18:53:55;;;;;;;1.20;0.50;;;;;;;10.80;86.35;99527.50;218665;1257;139889;-75
2023/10/07 18:59:01;;;;;;;2.50;0.90;;;;;;;10.74;86.44;99544.73;218788;1259;139879;-76
2023/10/07 19:04:07;;;;;;;;;;;;;;;10.73;86.65;99531.91;218148;1258;139348;-76
2023/10/07 19:09:16;;;;;;;3.40;1.50;;;;;;;10.71;86.61;99540.41;217925;1262;126033;-77
2023/10/07 19:14:21;;;;;;;2.40;0.80;;;;;;;10.68;86.48;99547.25;217648;1262;140845;-77
2023/10/07 19:19:27;;;;;;;3.10;1.20;;;;;;;10.65;86.81;99539.73;217601;1260;139912;-76
2023/10/07 19:24:35;;;;;;;;;;;;;;;10.65;86.86;99544.48;218137;1259;139728;-78
2023/10/07 19:29:41;;;;;;;3.00;1.80;;;;;;;10.62;87.08;99554.55;217949;1259;127165;-75
2023/10/07 19:34:50;;;;;;;4.60;1.90;;;;;;;10.63;86.82;99561.71;217547;1259;140481;-74
2023/10/07 19:39:55;;;;;;;16.00;3.30;;;;;;;10.62;87.31;99564.30;217933;1260;139674;-78
2023/10/07 19:45:02;;;;;;;3.20;1.90;;;;;;;10.63;87.08;99578.02;217559;1262;139878;-72
2023/10/07 19:50:07;;;;;;;3.80;1.90;;;;;;;10.62;87.12;99582.27;218238;1256;139634;-72
2023/10/07 19:55:13;;;;;;;5.90;2.30;;;;;;;10.58;87.17;99589.49;217903;1260;139856;-78
2023/10/07 20:00:21;;;;;;;3.30;1.20;;;;;;;10.56;87.20;99601.18;217941;1258;140637;-74
2023/10/07 20:05:28;;;;;;;5.50;1.20;;;;;;;10.55;87.40;99610.11;217406;1259;246688;-74
2023/10/07 20:10:33;;;;;;;1.70;0.70;;;;;;;10.52;87.56;99616.92;217250;1259;139922;-77
2023/10/07 20:15:42;;;;;;;4.00;1.30;;;;;;;10.51;87.63;99612.91;217972;1259;140208;-76
2023/10/07 20:21:01;;;;;;;1.30;0.80;;;;;;;10.46;87.53;99610.80;218089;1262;139929;-81
2023/10/07 20:26:07;;;;;;;2.30;1.40;;;;;;;10.46;87.78;99603.05;217551;1259;140106;-77
2023/10/07 20:31:18;;;;;;;6.10;2.10;;;;;;;10.44;87.67;99600.14;219239;1259;141017;-69
2023/10/07 20:36:24;;;;;;;2.00;1.00;;;;;;;10.44;87.71;99590.13;218177;1259;141038;-73
2023/10/07 20:41:32;;;;;;;2.90;1.30;;;;;;;10.46;87.91;99574.23;218140;1259;139916;-72
2023/10/07 20:46:38;;;;;;;1.50;1.40;;;;;;;10.45;87.92;99561.38;218748;1259;140953;-82
2023/10/07 20:51:46;;;;;;;3.00;1.40;;;;;;;10.44;87.88;99576.27;218967;1260;139689;-79
2023/10/07 20:56:52;;;;;;;2.50;1.40;;;;;;;10.43;87.86;99576.09;217339;1260;142502;-76
2023/10/07 21:01:59;;;;;;;4.10;1.70;;;;;;;10.42;87.91;99580.70;218197;1262;140493;-76
2023/10/07 21:07:12;;;;;;;2.10;1.10;;;;;;;10.43;88.06;99583.61;218002;1262;141189;-78
2023/10/07 21:12:18;;;;;;;2.20;1.50;;;;;;;10.40;87.85;99566.83;217890;1259;141080;-73
2023/10/07 21:17:22;;;;;;;7.70;1.70;;;;;;;10.36;88.11;99577.37;217937;1261;139304;-82
2023/10/07 21:22:30;;;;;;;4.90;2.10;;;;;;;10.36;88.28;99574.34;217686;1257;139513;-73
2023/10/07 21:27:35;;;;;;;6.40;2.10;;;;;;;10.36;88.32;99558.27;217429;1259;433458;-74
2023/10/07 21:32:41;;;;;;;12.50;3.20;;;;;;;10.35;88.53;99565.84;217694;1262;140364;-76
2023/10/07 21:37:46;;;;;;;2.00;1.20;;;;;;;10.34;88.49;99565.00;218246;1259;141027;-82
2023/10/07 21:42:54;;;;;;;7.50;1.60;;;;;;;10.31;88.70;99554.68;217394;1259;139467;-80
2023/10/07 21:47:59;;;;;;;9.80;2.20;;;;;;;10.28;88.59;99540.53;217948;1262;140059;-76
2023/10/07 21:53:05;;;;;;;6.40;2.00;;;;;;;10.28;88.92;99534.63;218454;1259;140347;-70
2023/10/07 21:58:13;;;;;;;5.90;2.10;;;;;;;10.27;88.69;99536.77;217578;1258;140063;-78
2023/10/07 22:03:20;;;;;;;7.10;2.40;;;;;;;10.22;88.83;99553.15;218933;1259;139477;-75
2023/10/07 22:08:26;;;;;;;4.70;1.40;;;;;;;10.20;88.88;99556.17;217783;1261;142013;-77
2023/10/07 22:13:33;;;;;;;7.40;1.70;;;;;;;10.15;88.90;99550.59;217067;1259;140025;-73
2023/10/07 22:18:39;;;;;;;4.70;1.90;;;;;;;10.11;89.02;99547.42;217820;1257;140838;-73
2023/10/07 22:23:49;;;;;;;4.10;2.50;;;;;;;10.07;89.05;99548.14;218436;1259;140293;-74
2023/10/07 22:28:56;;;;;;;4.70;1.20;;;;;;;10.04;89.08;99543.94;217936;1259;140419;-75
2023/10/07 22:34:02;;;;;;;2.90;1.10;;;;;;;10.04;89.17;99544.77;218849;1262;141222;-74
2023/10/07 22:39:19;;;;;;;3.70;1.60;;;;;;;10.07;89.39;99561.05;219896;1260;140805;-76
2023/10/07 22:44:25;;;;;;;;;;;;;;;10.11;89.52;99576.16;219464;1257;140469;-78
2023/10/07 22:49:33;;;;;;;3.30;1.30;;;;;;;10.08;89.20;99569.02;217694;1260;126368;-77
2023/10/07 22:54:50;;;;;;;5.40;2.70;;;;;;;10.04;89.23;99562.79;218693;1260;140015;-76
2023/10/07 22:59:55;;;;;;;2.60;1.70;;;;;;;10.03;89.33;99570.48;217343;1260;140855;-78
2023/10/07 23:05:08;;;;;;;1.80;1.40;;;;;;;10.00;89.35;99565.36;217680;1262;140283;-77
2023/10/07 23:10:25;;;;;;;7.50;1.70;;;;;;;10.01;89.54;99552.66;217531;1259;140652;-74
2023/10/07 23:15:31;;;;;;;3.10;1.10;;;;;;;9.99;89.58;99563.79;217930;1259;139715;-72
2023/10/07 23:20:38;;;;;;;20.70;3.00;;;;;;;10.00;89.60;99562.05;217374;1259;140064;-71
2023/10/07 23:25:57;;;;;;;4.30;1.50;;;;;;;9.99;89.68;99561.88;218109;1258;140974;-70
2023/10/07 23:36:23;;;;;;;4.40;1.80;;;;;;;9.93;89.66;99577.66;217868;1262;139734;-73
2023/10/07 23:41:31;;;;;;;3.50;0.70;;;;;;;9.93;89.71;99577.88;217312;1259;140053;-73
2023/10/07 23:46:38;;;;;;;3.60;1.00;;;;;;;9.90;89.77;99574.52;218296;1259;140511;-75
2023/10/07 23:51:45;;;;;;;4.30;1.40;;;;;;;9.89;89.78;99579.66;217290;1262;140420;-76
2023/10/07 23:56:50;;;;;;;3.10;1.40;;;;;;;9.90;89.87;99571.73;217313;1261;140427;-75
